• Join FlightAware (Why Join?)
  • Login
  • US Flag 
12:54AM EDT


 

Airport Tracker/Info


-or-


 

Live Flight TrackerFlight Track Log ✈ PRY4 ✈ 12-Jun-2013 ✈ KDRT - KMQY

Flight Track Log - Related Links

Times and Time Zones

All times are in EDT time to prevent confusion due to time zone crossing. See the PRY4 flight status page for this flight to view local times or setup timezone preferences in your user account.

Time Position Orientation Groundspeed Altitude Reporting Facility
EDT Latitude Longitude Course Direction KTS MPH feet Rate Location/Type
12:23AM 29.4025 -100.8478 57° Northeast 127 146 4,700  Level Houston Center
12:24AM 29.4231 -100.8117 57° Northeast 131 151 6,000 1,260 Climbing Houston Center
12:25AM 29.4444 -100.7744 57° Northeast 136 157 7,300 1,380 Climbing Houston Center
12:26AM 29.4650 -100.7347 59° Northeast 141 162 8,900 1,440 Climbing Houston Center
12:27AM 29.4861 -100.6969 57° Northeast 141 162 10,300 1,380 Climbing Houston Center
12:28AM 29.5064 -100.6606 57° Northeast 138 159 11,700 1,320 Climbing Houston Center
12:29AM 29.5269 -100.6236 57° Northeast 137 158 13,000 1,260 Climbing Houston Center
12:30AM 29.5483 -100.5844 58° Northeast 143 165 14,300 1,260 Climbing Houston Center
12:31AM 29.5703 -100.5442 58° Northeast 148 170 15,600 1,200 Climbing Houston Center
12:32AM 29.5931 -100.5033 57° Northeast 152 175 16,800 1,200 Climbing Houston Center
12:33AM 29.6158 -100.4628 57° Northeast 152 175 18,100 1,140 Climbing Houston Center
12:34AM 29.6386 -100.4211 58° Northeast 154 177 19,100 960 Climbing Houston Center
12:35AM 29.6622 -100.3767 59° Northeast 161 185 20,100 900 Climbing Houston Center
12:36AM 29.6869 -100.3319 58° Northeast 165 190 21,000 840 Climbing Houston Center
12:37AM 29.7114 -100.2883 57° Northeast 164 189 21,900 840 Climbing Houston Center
12:38AM 29.7367 -100.2408 58° Northeast 172 198 22,700 780 Climbing Houston Center
12:39AM 29.7631 -100.1933 57° Northeast 176 203 23,500 720 Climbing Houston Center
12:40AM 29.7894 -100.1442 58° Northeast 180 207 24,200 660 Climbing Houston Center
12:41AM 29.8269 -100.1050 42° Northeast 184 212 24,900 360 Climbing Houston Center
12:42AM 29.8703 -100.0667 37° Northeast 195 224 25,000  Climbing Houston Center
12:43AM 29.9194 -100.0225 38° Northeast 220 253 25,000  Level Houston Center
12:44AM 29.9800 -99.9656 39° Northeast 234 269 25,000  Level Houston Center
12:45AM 30.0317 -99.9167 39° Northeast 240 276 25,000  Level Houston Center
12:46AM 30.0839 -99.8686 39° Northeast 241 277 25,000  Level Houston Center
12:47AM 30.1369 -99.8228 37° Northeast 238 274 25,000  Level Houston Center
12:48AM 30.1911 -99.7769 36° Northeast 241 277 25,000  Level Houston Center
12:49AM 30.2444 -99.7311 37° Northeast 240 276 25,000 780 Level Houston Center
12:50AM 30.2928 -99.6939 34° Northeast 215 247 26,600 960 Climbing Houston Center
12:51AM 30.3161 -99.6472 60° Northeast 171 197 27,000 180 Climbing Houston Center
12:52AM 30.3436 -99.5953 58° Northeast 190 219 27,000  Level Houston Center
12:53AM 30.3731 -99.5372 60° Northeast 207 238 27,000  Level Houston Center
12:54AM 30.4047 -99.4764 59° Northeast 221 254 27,000  Level Houston Center
12:55AM 30.4372 -99.4142 59° Northeast 224 258 27,000  Level Houston Center
12:56AM 30.4700 -99.3486 60° Northeast 234 269 27,000  Level Houston Center
12:57AM 30.5039 -99.2844 58° Northeast 234 269 27,000  Level Houston Center
12:58AM 30.5369 -99.2203 59° Northeast 232 267 27,000  Level Houston Center
12:59AM 30.5683 -99.1569 60° Northeast 228 262 27,000  Level Houston Center
01:00AM 30.6011 -99.0925 59° Northeast 229 264 27,000  Level Houston Center
01:01AM 30.6333 -99.0283 60° Northeast 229 264 27,000  Level Houston Center
01:02AM 30.6667 -98.9664 58° Northeast 225 259 27,000  Level Houston Center
01:03AM 30.6989 -98.9028 59° Northeast 225 259 27,000  Level Houston Center
01:04AM 30.7303 -98.8383 60° Northeast 226 260 27,000  Level Houston Center
01:05AM 30.7622 -98.7744 60° Northeast 226 260 27,000  Level Houston Center
01:06AM 30.7953 -98.7097 59° Northeast 229 264 27,000  Level Houston Center
01:07AM 30.8289 -98.6444 59° Northeast 231 266 27,000  Level Houston Center
01:08AM 30.8608 -98.5789 60° Northeast 231 266 27,000  Level Houston Center
01:09AM 30.8931 -98.5133 60° Northeast 231 266 27,000  Level Houston Center
01:10AM 30.9269 -98.4486 59° Northeast 231 266 27,000  Level Houston Center
01:11AM 30.9586 -98.3833 60° Northeast 229 264 27,000  Level Houston Center
01:12AM 30.9917 -98.3167 60° Northeast 233 268 27,000  Level Houston Center
01:13AM 31.0247 -98.2517 59° Northeast 230 265 27,000  Level Houston Center
01:14AM 31.0572 -98.1853 60° Northeast 232 267 27,000  Level Houston Center
01:15AM 31.0850 -98.1306 59° Northeast 232 267 27,000  Level Houston Center
01:16AM 31.1183 -98.0639 60° Northeast 235 270 27,000  Level Houston Center
01:17AM 31.1517 -97.9972 60° Northeast 236 272 27,000  Level Houston Center
01:18AM 31.1842 -97.9314 60° Northeast 234 269 27,000  Level Houston Center
01:20AM 31.2161 -97.8661 60° Northeast 230 265 27,000  Level Houston Center
01:21AM 31.2489 -97.8000 60° Northeast 232 267 27,000  Level Houston Center
01:22AM 31.2817 -97.7336 60° Northeast 233 268 27,000  Level Houston Center
01:23AM 31.3153 -97.6686 59° Northeast 229 264 27,000  Level Fort Worth Center
01:24AM 31.3467 -97.6056 60° Northeast 229 264 27,000  Level Fort Worth Center
01:25AM 31.3844 -97.5300 60° Northeast 229 264 27,000  Level Fort Worth Center
01:26AM 31.4158 -97.4644 61° Northeast 229 264 27,000  Level Fort Worth Center
01:27AM 31.4472 -97.3986 61° Northeast 229 264 27,000  Level Fort Worth Center
01:28AM 31.4806 -97.3306 60° Northeast 236 272 27,000  Level Fort Worth Center
01:29AM 31.5106 -97.2658 61° Northeast 235 270 27,000  Level Houston Center
01:30AM 31.5433 -97.2000 60° Northeast 232 267 27,000  Level Houston Center
01:32AM 31.6053 -97.0719 60° Northeast 230 265 27,000  Level Fort Worth Center
01:33AM 31.6344 -97.0131 60° Northeast 230 265 27,000  Level Fort Worth Center
01:34AM 31.6656 -96.9447 62° Northeast 230 265 27,000  Level Fort Worth Center
01:35AM 31.6967 -96.8811 60° Northeast 230 265 27,000  Level Fort Worth Center
01:36AM 31.7297 -96.8150 60° Northeast 230 265 27,000  Level Fort Worth Center
01:37AM 31.7606 -96.7489 61° Northeast 230 265 27,000  Level Fort Worth Center
01:38AM 31.7917 -96.6850 60° Northeast 225 259 27,000  Level Fort Worth Center
01:39AM 31.8267 -96.6164 59° Northeast 225 259 27,000  Level Fort Worth Center
01:40AM 31.8514 -96.5525 65° Northeast 225 259 27,000  Level Fort Worth Center
01:41AM 31.8842 -96.4836 61° Northeast 220 253 27,000  Level Fort Worth Center
01:42AM 31.9172 -96.4172 60° Northeast 220 253 27,000  Level Fort Worth Center
01:43AM 31.9478 -96.3508 62° Northeast 225 259 27,000  Level Fort Worth Center
01:44AM 31.9786 -96.2867 60° Northeast 220 253 27,000  Level Fort Worth Center
01:45AM 32.0114 -96.2178 61° Northeast 220 253 27,000  Level Fort Worth Center
01:46AM 32.0422 -96.1511 61° Northeast 220 253 27,000  Level Fort Worth Center
01:47AM 32.0728 -96.0844 62° Northeast 220 253 27,000  Level Fort Worth Center
01:48AM 32.1033 -96.0181 61° Northeast 220 253 27,000  Level Fort Worth Center
01:49AM 32.1361 -95.9536 59° Northeast 220 253 27,000  Level Fort Worth Center
01:50AM 32.1667 -95.8869 62° Northeast 226 260 27,000  Level Fort Worth Center
01:51AM 32.1969 -95.8175 63° Northeast 226 260 27,000  Level Fort Worth Center
01:52AM 32.2294 -95.7508 60° Northeast 226 260 27,000  Level Fort Worth Center
01:53AM 32.2619 -95.6814 61° Northeast 226 260 27,000  Level Fort Worth Center
01:54AM 32.2925 -95.6169 61° Northeast 226 260 27,000  Level Fort Worth Center
01:55AM 32.3228 -95.5500 62° Northeast 226 260 27,000  Level Fort Worth Center
01:56AM 32.3592 -95.4778 59° Northeast 226 260 27,000  Level Fort Worth Center
01:57AM 32.3875 -95.4108 63° Northeast 226 260 27,000  Level Fort Worth Center
01:58AM 32.4219 -95.3411 60° Northeast 226 260 27,000  Level Fort Worth Center
01:59AM 32.4519 -95.2739 62° Northeast 231 266 27,000  Level Fort Worth Center
02:00AM 32.4800 -95.2092 63° Northeast 231 266 27,000  Level Fort Worth Center
02:01AM 32.5081 -95.1397 64° Northeast 231 266 27,000  Level Fort Worth Center
02:02AM 32.5403 -95.0675 62° Northeast 231 266 27,000  Level Fort Worth Center
02:03AM 32.5744 -95.0000 59° Northeast 231 266 27,000  Level Fort Worth Center
02:04AM 32.6064 -94.9275 62° Northeast 236 272 27,000  Level Fort Worth Center
02:05AM 32.6406 -94.8575 60° Northeast 241 277 27,000  Level Fort Worth Center
02:06AM 32.6703 -94.7875 63° Northeast 241 277 27,000  Level Fort Worth Center
02:07AM 32.7042 -94.7150 61° Northeast 241 277 27,000  Level Fort Worth Center
02:08AM 32.7361 -94.6450 62° Northeast 241 277 27,000  Level Fort Worth Center
02:09AM 32.7681 -94.5747 62° Northeast 247 284 27,000  Level Fort Worth Center
02:10AM 32.8017 -94.4994 62° Northeast 247 284 27,000  Level Fort Worth Center
02:11AM 32.8333 -94.4269 63° Northeast 247 284 27,000  Level Fort Worth Center
02:12AM 32.8672 -94.3539 61° Northeast 247 284 27,000  Level Fort Worth Center
02:13AM 32.9008 -94.2811 61° Northeast 247 284 27,000  Level Fort Worth Center
02:14AM 32.9325 -94.2058 63° Northeast 247 284 27,000  Level Fort Worth Center
02:15AM 32.9661 -94.1328 61° Northeast 247 284 27,000  Level Fort Worth Center
02:16AM 32.9994 -94.0597 61° Northeast 247 284 27,000  Level Fort Worth Center
02:17AM 33.0331 -93.9867 61° Northeast 247 284 27,000  Level Fort Worth Center
02:18AM 33.0644 -93.9111 64° Northeast 247 284 27,000  Level Fort Worth Center
02:19AM 33.0978 -93.8353 62° Northeast 247 284 27,000  Level Fort Worth Center
02:20AM 33.1311 -93.7619 61° Northeast 247 284 27,000  Level Fort Worth Center
02:21AM 33.1622 -93.6864 64° Northeast 247 284 27,000  Level Fort Worth Center
02:22AM 33.1956 -93.6131 61° Northeast 247 284 27,000  Level Fort Worth Center
02:23AM 33.2289 -93.5394 62° Northeast 247 284 27,000  Level Fort Worth Center
02:24AM 33.2619 -93.4683 61° Northeast 247 284 27,000  Level Fort Worth Center
02:25AM 33.2950 -93.3925 62° Northeast 247 284 27,000  Level Fort Worth Center
02:26AM 33.3281 -93.3164 63° Northeast 247 284 27,000  Level Fort Worth Center
02:27AM 33.3919 -93.1686 63° Northeast 254 292 27,000  Level Memphis Center
02:28AM 33.4247 -93.0950 62° Northeast 254 292 27,000  Level Memphis Center
02:29AM 33.4578 -93.0189 62° Northeast 254 292 27,000  Level Memphis Center
02:30AM 33.4906 -92.9453 62° Northeast 254 292 27,000  Level Memphis Center
02:31AM 33.5214 -92.8714 63° Northeast 254 292 27,000  Level Memphis Center
02:32AM 33.5561 -92.7975 61° Northeast 254 292 27,000  Level Memphis Center
02:33AM 33.5869 -92.7211 64° Northeast 254 292 27,000  Level Memphis Center
02:34AM 33.6197 -92.6472 62° Northeast 249 287 27,000  Level Memphis Center
02:35AM 33.6500 -92.5756 63° Northeast 244 281 27,000  Level Memphis Center
02:36AM 33.6828 -92.4992 63° Northeast 244 281 27,000  Level Memphis Center
02:37AM 33.7133 -92.4250 64° Northeast 244 281 27,000  Level Memphis Center
02:38AM 33.7414 -92.3556 64° Northeast 239 275 27,000  Level Memphis Center
02:39AM 33.7739 -92.2839 61° Northeast 239 275 27,000  Level Memphis Center
02:40AM 33.8042 -92.2094 64° Northeast 239 275 27,000  Level Memphis Center
02:41AM 33.8367 -92.1378 61° Northeast 239 275 27,000  Level Memphis Center
02:42AM 33.8689 -92.0658 62° Northeast 239 275 27,000  Level Memphis Center
02:43AM 33.8969 -91.9889 66° East 239 275 27,000  Level Memphis Center
02:44AM 33.9272 -91.9169 63° Northeast 239 275 27,000  Level Memphis Center
02:45AM 33.9594 -91.8422 63° Northeast 239 275 27,000  Level Memphis Center
02:46AM 33.9936 -91.7703 60° Northeast 239 275 27,000  Level Memphis Center
02:47AM 34.0194 -91.6953 67° East 239 275 27,000  Level Memphis Center
02:48AM 34.0494 -91.6206 64° Northeast 239 275 27,000  Level Memphis Center
02:49AM 34.0794 -91.5483 63° Northeast 239 275 27,000  Level Memphis Center
02:50AM 34.1094 -91.4761 63° Northeast 239 275 27,000  Level Memphis Center
02:51AM 34.1392 -91.4011 64° Northeast 239 275 27,000  Level Memphis Center
02:52AM 34.1647 -91.3336 65° Northeast 239 275 27,000  Level Memphis Center
02:53AM 34.1986 -91.2611 61° Northeast 239 275 27,000  Level Memphis Center
02:54AM 34.2242 -91.1861 68° East 239 275 27,000  Level Memphis Center
02:55AM 34.2581 -91.1136 60° Northeast 239 275 27,000  Level Memphis Center
02:56AM 34.2897 -91.0408 62° Northeast 239 275 27,000  Level Memphis Center
02:57AM 34.3194 -90.9633 65° Northeast 239 275 27,000  Level Memphis Center
02:58AM 34.3511 -90.8831 64° Northeast 239 275 27,000  Level Memphis Center
02:59AM 34.3828 -90.8050 64° Northeast 239 275 27,000  Level Memphis Center
03:00AM 34.4142 -90.7297 63° Northeast 239 275 27,000  Level Memphis Center
03:01AM 34.4436 -90.6544 65° Northeast 239 275 27,000  Level Memphis Center
03:02AM 34.4750 -90.5764 64° Northeast 244 281 27,000  Level Memphis Center
03:03AM 34.5064 -90.5008 63° Northeast 244 281 27,000  Level Memphis Center
03:04AM 34.5358 -90.4253 65° Northeast 250 288 27,000  Level Memphis Center
03:05AM 34.5672 -90.3469 64° Northeast 250 288 27,000  Level Memphis Center
03:06AM 34.5983 -90.2714 63° Northeast 250 288 27,000  Level Memphis Center
03:07AM 34.6297 -90.1931 64° Northeast 250 288 27,000  Level Memphis Center
03:08AM 34.6544 -90.1247 66° East 250 288 27,000  Level Memphis Center
03:09AM 34.6856 -90.0464 64° Northeast 250 288 27,000  Level Memphis Center
03:10AM 34.7147 -89.9706 65° Northeast 250 288 27,000  Level Memphis Center
03:11AM 34.7456 -89.8919 64° Northeast 256 295 27,000  Level Memphis Center
03:12AM 34.7808 -89.8033 64° Northeast 251 289 27,000  Level Memphis Center
03:13AM 34.8117 -89.7172 66° East 268 308 27,000  Level Memphis Center
03:14AM 34.8425 -89.6411 64° Northeast 262 302 27,000  Level Memphis Center
03:15AM 34.8733 -89.5647 64° Northeast 268 308 27,000  Level Memphis Center
03:16AM 34.9061 -89.4833 64° Northeast 258 297 27,000  Level Memphis Center
03:17AM 34.9369 -89.4072 64° Northeast 253 291 27,000  Level Memphis Center
03:18AM 34.9675 -89.3258 65° Northeast 258 297 27,000  Level Memphis Center
03:19AM 34.9981 -89.2467 65° Northeast 258 297 27,000  Level Memphis Center
03:20AM 35.0286 -89.1678 65° Northeast 258 297 27,000  Level Memphis Center
03:21AM 35.0614 -89.0886 63° Northeast 258 297 27,000  Level Memphis Center
03:22AM 35.0936 -88.9994 66° East 258 297 27,000  Level Memphis Center
03:23AM 35.1242 -88.9175 65° Northeast 258 297 27,000  Level Memphis Center
03:24AM 35.1564 -88.8358 64° Northeast 258 297 27,000 -60 Level Memphis Center
03:25AM 35.1867 -88.7564 65° Northeast 258 297 26,900 -660 Descending Memphis Center
03:26AM 35.2211 -88.6669 65° Northeast 266 306 25,700 -1,200 Descending Memphis Center
03:27AM 35.2572 -88.5694 66° East 289 333 24,500 -1,080 Descending Memphis Center
03:28AM 35.2894 -88.4872 64° Northeast 297 342 23,600 -1,200 Descending Memphis Center
03:29AM 35.3275 -88.3897 64° Northeast 290 334 22,200 -1,320 Descending Memphis Center
03:30AM 35.3636 -88.2972 64° Northeast 290 334 21,000 -1,200 Descending Memphis Center
03:31AM 35.3953 -88.2047 67° East 296 341 19,900 -1,200 Descending Memphis Center
03:32AM 35.4314 -88.1147 64° Northeast 295 339 18,700 -1,200 Descending Memphis Center
03:33AM 35.4672 -88.0194 65° Northeast 295 339 17,500 -1,200 Descending Memphis Center
03:34AM 35.5008 -87.9317 65° Northeast 295 339 16,300 -1,200 Descending Memphis Center
03:35AM 35.5344 -87.8389 66° East 295 339 15,100 -1,200 Descending Memphis Center
03:36AM 35.5658 -87.7461 67° East 295 339 13,900 -1,200 Descending Memphis Center
03:37AM 35.6017 -87.6556 64° Northeast 295 339 12,700 -1,200 Descending Memphis Center
03:38AM 35.6328 -87.5628 68° East 290 334 11,600 -1,080 Descending Memphis Center
03:39AM 35.6644 -87.4822 64° Northeast 285 328 10,600 -1,140 Descending Memphis Center
03:40AM 35.6956 -87.3917 67° East 285 328 9,400 -840 Descending Memphis Center
03:41AM 35.7289 -87.3036 65° Northeast 280 322 9,000 -240 Descending Memphis Center
03:42AM 35.7603 -87.2181 66° East 280 322 9,000 -300 Level Memphis Center
03:43AM 35.7914 -87.1325 66° East 280 322 8,500 -900 Descending Memphis Center
03:44AM 35.8244 -87.0389 66° East 285 328 7,300 -1,200 Descending Memphis Center
03:45AM 35.8553 -86.9531 66° East 278 320 6,100 -1,200 Descending Memphis Center
03:46AM 35.8842 -86.8650 68° East 278 320 4,900 -1,200 Descending Memphis Center
03:47AM 35.9172 -86.7789 65° Northeast 278 320 3,700 -660 Descending Memphis Center
03:48AM 35.9500 -86.6853 67° East 278 320 3,600 -120 Descending Memphis Center
03:56AM 35.9718 -86.6014 68° East  Level FlightAware Approximate
04:03AM 36.0000 -86.5167 251° West  Level FlightAware Approximate
04:04AM 36.0090 -86.5201 251° West  Level Estimated
04:05AM 36.0090 -86.5201 251° West  Level Estimated
04:06AM 36.0090 -86.5201 251° West  Level Estimated
04:07AM 36.0090 -86.5201 251° West  Level Estimated
04:08AM 36.0090 -86.5201 251° West  Level Estimated
04:09AM 36.0090 -86.5201 251° West  Level Estimated
04:10AM 36.0090 -86.5201 251° West  Level Estimated